Time;durP1;ratioP1;P1;durP2;ratioP2;P2;SDS_P1;SDS_P2;PMS_P1;PMS_P2;Temp;Humidity;BMP_temperature;BMP_pressure;BME280_temperature;BME280_humidity;BME280_pressure;Samples;Min_cycle;Max_cycle;Signal;HPM_P1;HPM_P2
2023/03/05 00:00:43;;;;;;;47.17;25.55;;;1.10;1.00;;;;;;5054211;28;20361;-51
2023/03/05 00:03:08;;;;;;;41.85;24.08;;;1.20;1.00;;;;;;5054033;28;20057;-51
2023/03/05 00:05:34;;;;;;;48.10;24.55;;;1.20;1.00;;;;;;5053877;28;20029;-51
2023/03/05 00:08:00;;;;;;;45.75;24.45;;;1.20;1.00;;;;;;5054025;28;20021;-51
2023/03/05 00:10:26;;;;;;;42.83;25.30;;;1.20;1.00;;;;;;5053558;28;20518;-52
2023/03/05 00:12:52;;;;;;;46.15;26.33;;;1.30;1.00;;;;;;5053048;28;20664;-52
2023/03/05 00:15:20;;;;;;;45.90;22.75;;;1.30;1.00;;;;;;5053878;28;20032;-51
2023/03/05 00:17:46;;;;;;;43.30;24.70;;;1.30;1.00;;;;;;5053699;28;20372;-51
2023/03/05 00:20:12;;;;;;;41.22;25.65;;;1.30;1.00;;;;;;5053833;28;20096;-52
2023/03/05 00:22:37;;;;;;;48.45;24.42;;;1.30;1.00;;;;;;5053616;28;20025;-52
2023/03/05 00:25:04;;;;;;;41.95;23.13;;;1.40;1.00;;;;;;5053597;28;20461;-51
2023/03/05 00:27:30;;;;;;;46.70;24.58;;;1.40;1.00;;;;;;5053551;28;20547;-51
2023/03/05 00:29:56;;;;;;;40.63;23.17;;;1.50;1.00;;;;;;5053541;28;20120;-49
2023/03/05 00:32:22;;;;;;;46.92;24.10;;;1.40;1.00;;;;;;5053346;28;20108;-52
2023/03/05 00:34:48;;;;;;;46.00;25.95;;;1.40;1.00;;;;;;5053334;28;20021;-53
2023/03/05 00:37:15;;;;;;;42.17;23.30;;;1.40;1.00;;;;;;5053512;28;20132;-52
2023/03/05 00:39:41;;;;;;;44.30;26.02;;;1.40;1.00;;;;;;5053176;28;20517;-54
2023/03/05 00:42:06;;;;;;;42.78;23.95;;;1.40;1.00;;;;;;5053503;28;20025;-52
2023/03/05 00:44:32;;;;;;;47.13;24.85;;;1.40;1.00;;;;;;5053236;28;20032;-53
2023/03/05 00:46:58;;;;;;;51.70;25.60;;;1.30;1.00;;;;;;5053189;28;20032;-51
2023/03/05 00:49:23;;;;;;;50.20;24.67;;;1.30;1.00;;;;;;5053254;28;20025;-51
2023/03/05 00:51:49;;;;;;;42.72;24.88;;;1.30;1.00;;;;;;5053428;28;20040;-52
2023/03/05 00:54:15;;;;;;;48.20;26.20;;;1.30;1.00;;;;;;5053082;28;20029;-51
2023/03/05 00:56:40;;;;;;;53.80;26.30;;;1.30;1.00;;;;;;5052938;28;20083;-52
2023/03/05 00:59:06;;;;;;;42.42;25.08;;;1.30;1.00;;;;;;5053152;28;20017;-52
2023/03/05 01:01:32;;;;;;;47.80;24.65;;;1.30;1.00;;;;;;5051404;28;20368;-52
2023/03/05 01:03:58;;;;;;;58.13;27.27;;;1.40;1.00;;;;;;5052946;28;20084;-51
2023/03/05 01:06:24;;;;;;;47.22;26.60;;;1.40;1.00;;;;;;5052944;28;20478;-52
2023/03/05 01:08:50;;;;;;;48.90;26.98;;;1.40;1.00;;;;;;5052953;28;20506;-51
2023/03/05 01:11:16;;;;;;;53.95;27.00;;;1.30;1.00;;;;;;5052755;28;20106;-52
2023/03/05 01:13:42;;;;;;;51.88;26.83;;;1.20;1.00;;;;;;5052582;28;20027;-51
2023/03/05 01:16:07;;;;;;;58.03;30.55;;;1.30;1.00;;;;;;5052601;28;20059;-52
2023/03/05 01:18:34;;;;;;;49.53;25.83;;;1.30;1.00;;;;;;5052401;28;20036;-51
2023/03/05 01:20:59;;;;;;;59.15;26.23;;;1.40;1.00;;;;;;5052500;28;20079;-51
2023/03/05 01:23:25;;;;;;;52.83;28.35;;;1.50;1.00;;;;;;5052546;28;20028;-51
2023/03/05 01:25:55;;;;;;;55.45;27.20;;;1.40;1.00;;;;;;5052391;28;20032;-50
2023/03/05 01:28:21;;;;;;;50.28;26.10;;;1.40;1.00;;;;;;5052370;28;20036;-51
2023/03/05 01:30:47;;;;;;;62.85;28.95;;;1.40;1.00;;;;;;5052496;28;20016;-52
2023/03/05 01:33:13;;;;;;;49.80;25.65;;;1.40;1.00;;;;;;5052191;28;20017;-50
2023/03/05 01:35:38;;;;;;;51.75;28.45;;;1.40;1.00;;;;;;5052333;28;20025;-52
2023/03/05 01:38:04;;;;;;;49.38;27.13;;;1.40;1.00;;;;;;5052445;28;20405;-51
2023/03/05 01:40:30;;;;;;;48.13;26.98;;;1.40;1.00;;;;;;5052188;28;20021;-51
2023/03/05 01:43:18;;;;;;;48.47;26.13;;;1.40;1.00;;;;;;5052042;28;20032;-51
2023/03/05 01:46:12;;;;;;;51.47;25.15;;;1.50;1.00;;;;;;5051280;28;20044;-52
2023/03/05 01:48:39;;;;;;;48.90;27.15;;;1.50;1.00;;;;;;5051986;28;20017;-51
2023/03/05 01:51:06;;;;;;;49.30;26.38;;;1.50;1.00;;;;;;5050704;28;20116;-51
2023/03/05 01:53:31;;;;;;;52.05;26.63;;;1.50;1.00;;;;;;5051922;28;20025;-52
2023/03/05 01:55:57;;;;;;;46.72;23.92;;;1.50;1.00;;;;;;5051949;28;20533;-53
2023/03/05 01:58:24;;;;;;;48.20;26.17;;;1.50;1.00;;;;;;5051810;28;20021;-51
2023/03/05 02:00:52;;;;;;;49.65;26.48;;;1.50;1.00;;;;;;5050542;28;20021;-52
2023/03/05 02:03:19;;;;;;;53.08;26.88;;;1.40;1.00;;;;;;5051965;28;20560;-51
2023/03/05 02:05:45;;;;;;;46.45;27.08;;;1.50;1.00;;;;;;5051803;28;20025;-52
2023/03/05 02:08:18;;;;;;;48.67;25.40;;;1.50;1.00;;;;;;5051864;28;20475;-53
2023/03/05 02:10:46;;;;;;;46.25;25.00;;;1.50;1.00;;;;;;5051427;28;20045;-51
2023/03/05 02:13:21;;;;;;;48.58;24.17;;;1.50;1.00;;;;;;5051648;28;20107;-51
2023/03/05 02:15:48;;;;;;;50.13;25.40;;;1.50;1.00;;;;;;5051242;28;20032;-50
2023/03/05 02:18:16;;;;;;;49.67;25.80;;;1.50;1.00;;;;;;5051546;28;20029;-52
2023/03/05 02:20:55;;;;;;;56.88;27.85;;;1.50;1.00;;;;;;5051515;28;20057;-51
2023/03/05 02:23:23;;;;;;;56.75;26.45;;;1.50;1.00;;;;;;5051547;28;20019;-51
2023/03/05 02:25:49;;;;;;;48.85;26.40;;;1.50;1.00;;;;;;5051533;28;20021;-51
2023/03/05 02:28:29;;;;;;;53.95;27.25;;;1.50;1.00;;;;;;5051555;28;20582;-51
2023/03/05 02:30:55;;;;;;;60.60;29.55;;;1.60;1.00;;;;;;5051613;28;20036;-51
2023/03/05 02:33:21;;;;;;;52.50;26.70;;;1.50;1.00;;;;;;5051133;28;20029;-50
2023/03/05 02:35:47;;;;;;;57.65;28.42;;;1.50;1.00;;;;;;5050741;28;20023;-52
2023/03/05 02:38:15;;;;;;;57.72;28.80;;;1.50;1.00;;;;;;5050187;28;20025;-48
2023/03/05 02:40:41;;;;;;;58.33;29.92;;;1.40;1.00;;;;;;5051518;28;20039;-50
2023/03/05 02:43:08;;;;;;;57.50;29.05;;;1.40;1.00;;;;;;5051284;28;20029;-51
2023/03/05 02:45:34;;;;;;;60.00;30.70;;;1.50;1.00;;;;;;5051208;28;20028;-54
2023/03/05 02:48:00;;;;;;;58.05;29.67;;;1.50;1.00;;;;;;5051351;28;20075;-52
2023/03/05 02:50:27;;;;;;;63.00;28.92;;;1.40;1.00;;;;;;5049854;28;20102;-51
2023/03/05 02:52:53;;;;;;;56.58;27.50;;;1.40;1.00;;;;;;5051192;28;20057;-51
2023/03/05 02:55:18;;;;;;;63.53;29.08;;;1.40;1.00;;;;;;5051218;28;20057;-52
2023/03/05 02:57:44;;;;;;;50.05;25.58;;;1.50;1.00;;;;;;5049893;28;20079;-51
2023/03/05 03:00:12;;;;;;;57.22;29.10;;;1.50;1.00;;;;;;5051333;28;20021;-51
2023/03/05 03:02:37;;;;;;;61.92;27.88;;;1.60;1.00;;;;;;5051142;28;20025;-52
2023/03/05 03:05:04;;;;;;;58.20;29.08;;;1.50;1.00;;;;;;5049756;28;20415;-52
2023/03/05 03:07:29;;;;;;;58.28;28.67;;;1.40;1.00;;;;;;5051095;28;20391;-51
2023/03/05 03:09:55;;;;;;;54.20;26.92;;;1.50;1.00;;;;;;5051042;28;20023;-53
2023/03/05 03:12:21;;;;;;;62.05;29.65;;;1.50;1.00;;;;;;5050804;28;20056;-52
2023/03/05 03:14:46;;;;;;;60.00;27.75;;;1.50;1.00;;;;;;5051200;28;20048;-52
2023/03/05 03:17:14;;;;;;;61.28;31.48;;;1.50;1.00;;;;;;5051181;28;20029;-51
2023/03/05 03:19:41;;;;;;;64.47;31.80;;;1.40;1.00;;;;;;5050875;28;20021;-51
2023/03/05 03:22:08;;;;;;;53.72;28.60;;;1.40;1.00;;;;;;5051007;28;20032;-52
2023/03/05 03:24:35;;;;;;;58.95;29.50;;;1.50;1.00;;;;;;5050852;28;20095;-51
2023/03/05 03:27:01;;;;;;;56.25;29.95;;;1.50;1.00;;;;;;5050969;28;20361;-51
2023/03/05 03:29:26;;;;;;;64.15;33.90;;;1.40;1.00;;;;;;5050795;28;20035;-51
2023/03/05 03:31:52;;;;;;;66.00;32.13;;;1.40;1.00;;;;;;5049666;28;20025;-53
2023/03/05 03:34:19;;;;;;;66.55;32.03;;;1.40;1.00;;;;;;5050740;28;20037;-52
2023/03/05 03:36:46;;;;;;;60.58;29.50;;;1.40;1.00;;;;;;5051124;28;20021;-52
2023/03/05 03:39:13;;;;;;;63.63;30.92;;;1.40;1.00;;;;;;5050839;28;20592;-52
2023/03/05 03:41:48;;;;;;;61.50;30.23;;;1.40;1.00;;;;;;5050761;28;20066;-52
2023/03/05 03:44:16;;;;;;;59.63;31.38;;;1.40;1.00;;;;;;5050797;28;20044;-52
2023/03/05 03:46:44;;;;;;;57.85;28.13;;;1.40;1.00;;;;;;5050607;28;20104;-52
2023/03/05 03:49:22;;;;;;;54.75;30.40;;;1.40;1.00;;;;;;5053040;28;20062;-51
2023/03/05 03:51:49;;;;;;;52.47;28.85;;;1.40;1.00;;;;;;5054322;28;20068;-51
2023/03/05 03:54:17;;;;;;;55.95;28.48;;;1.50;1.00;;;;;;5054242;28;20405;-51
2023/03/05 03:56:43;;;;;;;56.38;28.67;;;1.30;1.00;;;;;;5053950;28;20021;-51
2023/03/05 03:59:09;;;;;;;58.00;29.98;;;1.40;1.00;;;;;;5054106;28;20021;-52
2023/03/05 04:01:35;;;;;;;63.83;31.80;;;1.40;1.00;;;;;;5054073;28;20028;-50
2023/03/05 04:04:01;;;;;;;55.05;27.08;;;1.40;1.00;;;;;;5054075;28;20028;-51
2023/03/05 04:06:27;;;;;;;54.20;28.50;;;1.40;1.00;;;;;;5054002;28;20116;-49
2023/03/05 04:08:53;;;;;;;55.15;27.30;;;1.40;1.00;;;;;;5053913;28;20155;-50
2023/03/05 04:11:19;;;;;;;60.40;29.30;;;1.50;1.00;;;;;;5053741;28;20077;-52
2023/03/05 04:13:45;;;;;;;55.10;28.33;;;1.40;1.00;;;;;;5053753;28;20037;-51
2023/03/05 04:16:12;;;;;;;59.38;30.35;;;1.40;1.00;;;;;;5053990;28;20089;-52
2023/03/05 04:18:38;;;;;;;58.78;26.50;;;1.30;1.00;;;;;;5053784;28;20170;-51
2023/03/05 04:21:04;;;;;;;54.47;28.95;;;1.40;1.00;;;;;;5053821;28;20100;-51
2023/03/05 04:23:30;;;;;;;59.67;29.45;;;1.40;1.00;;;;;;5053664;28;20035;-51
2023/03/05 04:25:56;;;;;;;61.17;29.48;;;1.40;1.00;;;;;;5052342;28;20033;-51
2023/03/05 04:28:21;;;;;;;61.72;30.58;;;1.40;1.00;;;;;;5053553;28;20029;-51
2023/03/05 04:30:47;;;;;;;51.90;26.70;;;1.40;1.00;;;;;;5053478;28;20676;-52
2023/03/05 04:33:13;;;;;;;57.17;28.52;;;1.40;1.00;;;;;;5053595;28;20029;-52
2023/03/05 04:35:39;;;;;;;63.95;31.40;;;1.40;1.00;;;;;;5053252;28;20040;-49
2023/03/05 04:38:05;;;;;;;61.35;29.23;;;1.30;1.00;;;;;;5053391;28;20028;-51
2023/03/05 04:40:31;;;;;;;55.90;28.67;;;1.40;1.00;;;;;;5052086;28;20024;-51
2023/03/05 04:42:57;;;;;;;58.65;29.13;;;1.40;1.00;;;;;;5053168;28;20028;-51
2023/03/05 04:45:22;;;;;;;54.13;27.48;;;1.40;1.00;;;;;;5053516;28;20091;-52
2023/03/05 04:47:48;;;;;;;52.80;27.65;;;1.50;1.00;;;;;;5053282;28;20112;-50
2023/03/05 04:50:14;;;;;;;62.20;27.77;;;1.40;1.00;;;;;;5053538;28;20108;-51
2023/03/05 04:52:41;;;;;;;61.28;29.15;;;1.40;1.00;;;;;;5052896;28;20113;-51
2023/03/05 04:55:08;;;;;;;57.83;29.20;;;1.40;1.00;;;;;;5053073;28;20036;-50
2023/03/05 04:57:34;;;;;;;56.35;28.17;;;1.40;1.00;;;;;;5052861;28;20029;-52
2023/03/05 05:00:00;;;;;;;56.05;28.70;;;1.50;1.00;;;;;;5052570;28;20028;-51
2023/03/05 05:02:26;;;;;;;56.95;28.25;;;1.50;1.00;;;;;;5053006;28;20037;-50
2023/03/05 05:04:52;;;;;;;57.85;28.38;;;1.40;1.00;;;;;;5052959;28;20029;-52
2023/03/05 05:07:18;;;;;;;62.08;30.50;;;1.40;1.00;;;;;;5053014;28;20017;-55
2023/03/05 05:09:44;;;;;;;63.28;30.00;;;1.20;1.30;;;;;;5052805;28;20021;-50
2023/03/05 05:12:09;;;;;;;59.15;29.95;;;1.20;7.70;;;;;;5052600;28;20100;-53
2023/03/05 05:14:35;;;;;;;54.25;27.42;;;1.30;1.40;;;;;;5052647;28;20056;-51
2023/03/05 05:17:04;;;;;;;56.72;29.77;;;1.40;1.40;;;;;;5051517;28;20060;-52
2023/03/05 05:19:30;;;;;;;58.70;30.08;;;1.40;4.20;;;;;;5051599;28;20039;-50
2023/03/05 05:21:56;;;;;;;60.38;28.58;;;1.30;1.00;;;;;;5052535;28;20025;-52
2023/03/05 05:24:22;;;;;;;55.20;27.20;;;1.30;1.00;;;;;;5052472;28;20123;-51
2023/03/05 05:26:48;;;;;;;62.25;29.00;;;1.30;4.00;;;;;;5052589;28;20021;-51
2023/03/05 05:29:14;;;;;;;51.92;27.77;;;1.30;2.90;;;;;;5052575;28;20085;-51
2023/03/05 05:31:39;;;;;;;63.05;29.98;;;1.40;1.00;;;;;;5052403;28;20486;-52
2023/03/05 05:34:05;;;;;;;57.20;29.63;;;1.40;1.00;;;;;;5052275;28;20364;-51
2023/03/05 05:36:30;;;;;;;57.25;30.08;;;1.40;1.00;;;;;;5052331;28;20024;-53
2023/03/05 05:38:56;;;;;;;56.13;29.35;;;1.30;1.00;;;;;;5052228;28;20399;-51
2023/03/05 05:41:22;;;;;;;61.33;30.88;;;1.30;1.00;;;;;;5052219;28;20667;-52
2023/03/05 05:43:48;;;;;;;52.22;26.88;;;1.40;1.80;;;;;;5052170;28;20024;-51
2023/03/05 05:46:17;;;;;;;59.75;28.20;;;1.50;3.30;;;;;;5052206;28;20025;-51
2023/03/05 05:48:43;;;;;;;56.65;28.75;;;1.40;1.70;;;;;;5052065;28;20024;-51
2023/03/05 05:51:13;;;;;;;57.38;31.65;;;1.50;1.00;;;;;;5052016;28;20465;-52
2023/03/05 05:53:39;;;;;;;50.47;26.90;;;1.30;1.00;;;;;;5052124;28;20029;-51
2023/03/05 05:56:07;;;;;;;58.10;30.67;;;1.40;1.10;;;;;;5052246;28;20021;-51
2023/03/05 05:58:34;;;;;;;54.45;25.98;;;1.40;1.00;;;;;;5051912;28;20021;-51
2023/03/05 06:00:59;;;;;;;52.13;27.42;;;1.40;1.00;;;;;;5051883;28;20056;-51
2023/03/05 06:03:25;;;;;;;60.25;32.88;;;1.50;1.00;;;;;;5051815;28;20025;-52
2023/03/05 06:05:51;;;;;;;55.53;26.60;;;1.40;1.00;;;;;;5051814;28;20112;-51
2023/03/05 06:08:17;;;;;;;59.13;28.27;;;1.50;1.00;;;;;;5051702;28;20028;-54
2023/03/05 06:10:43;;;;;;;55.90;28.88;;;1.50;1.00;;;;;;5050951;28;20434;-52
2023/03/05 06:13:08;;;;;;;47.35;26.63;;;1.50;1.00;;;;;;5050310;28;20111;-52
2023/03/05 06:15:34;;;;;;;51.65;27.70;;;1.60;1.00;;;;;;5051640;28;20013;-52
2023/03/05 06:18:00;;;;;;;55.58;26.50;;;1.70;1.00;;;;;;5051583;28;20032;-51
2023/03/05 06:20:26;;;;;;;50.85;27.02;;;1.70;1.00;;;;;;5051497;28;20025;-52
2023/03/05 06:22:52;;;;;;;58.33;28.02;;;1.70;1.00;;;;;;5051415;28;20048;-52
2023/03/05 06:25:18;;;;;;;59.45;30.55;;;1.70;1.00;;;;;;5051762;28;20075;-52
2023/03/05 06:27:43;;;;;;;57.05;28.25;;;1.70;2.00;;;;;;5051289;28;20060;-52
2023/03/05 06:30:11;;;;;;;57.55;28.00;;;1.70;1.00;;;;;;5050366;28;20037;-51
2023/03/05 06:32:36;;;;;;;51.80;25.75;;;1.70;1.00;;;;;;5051201;28;20396;-51
2023/03/05 06:35:02;;;;;;;53.67;29.33;;;1.70;1.00;;;;;;5051468;28;20047;-51
2023/03/05 06:37:28;;;;;;;57.55;28.38;;;1.60;1.00;;;;;;5051284;28;20021;-50
2023/03/05 06:39:53;;;;;;;53.35;26.83;;;1.70;1.00;;;;;;5051203;28;20021;-51
2023/03/05 06:42:19;;;;;;;57.17;28.85;;;1.70;1.00;;;;;;5051451;28;20021;-52
2023/03/05 06:44:45;;;;;;;57.35;28.98;;;1.80;1.00;;;;;;5051241;28;20035;-52
2023/03/05 06:47:11;;;;;;;52.67;29.30;;;1.70;1.00;;;;;;5051275;28;20029;-51
2023/03/05 06:49:37;;;;;;;61.17;28.73;;;1.80;1.00;;;;;;5051113;28;20029;-50
2023/03/05 06:52:04;;;;;;;57.60;28.85;;;1.80;1.00;;;;;;5051300;28;20120;-51
2023/03/05 06:54:30;;;;;;;46.92;25.85;;;1.80;1.00;;;;;;5051052;28;20029;-52
2023/03/05 06:56:56;;;;;;;56.22;27.70;;;1.90;1.00;;;;;;5049925;28;20076;-51
2023/03/05 06:59:22;;;;;;;53.95;27.98;;;2.00;1.00;;;;;;5051172;28;20482;-51
2023/03/05 07:01:48;;;;;;;49.67;25.85;;;2.00;1.00;;;;;;5051340;28;20025;-52
2023/03/05 07:04:14;;;;;;;54.15;28.08;;;1.90;1.00;;;;;;5050960;28;20083;-53
2023/03/05 07:06:43;;;;;;;52.30;27.63;;;2.00;1.00;;;;;;5051009;28;20126;-51
2023/03/05 07:09:15;;;;;;;53.75;26.52;;;2.00;1.00;;;;;;5051275;28;20021;-52
2023/03/05 07:11:41;;;;;;;57.90;28.98;;;1.90;1.00;;;;;;5050880;28;20454;-49
2023/03/05 07:14:07;;;;;;;57.08;27.63;;;2.00;1.00;;;;;;5050919;28;20107;-51
2023/03/05 07:16:34;;;;;;;48.17;26.27;;;1.90;8.10;;;;;;5050909;28;20018;-52
2023/03/05 07:19:02;;;;;;;42.80;22.77;;;2.00;14.00;;;;;;5050864;28;20025;-52
2023/03/05 07:21:30;;;;;;;86.18;41.95;;;2.00;13.40;;;;;;5050906;28;20091;-50
2023/03/05 07:23:57;;;;;;;59.13;26.67;;;2.00;4.10;;;;;;5054527;28;20125;-51
2023/03/05 07:26:24;;;;;;;56.10;26.10;;;2.10;15.10;;;;;;5053355;28;20128;-50
2023/03/05 07:28:50;;;;;;;47.28;26.23;;;2.10;15.80;;;;;;5054543;28;20057;-52
2023/03/05 07:31:25;;;;;;;46.22;26.05;;;2.20;17.40;;;;;;5054559;28;20527;-52
2023/03/05 07:33:52;;;;;;;53.05;26.33;;;2.20;4.20;;;;;;5054423;28;20029;-50
2023/03/05 07:36:18;;;;;;;48.63;27.05;;;2.20;16.30;;;;;;5054672;28;20461;-50
2023/03/05 07:38:43;;;;;;;66.45;31.08;;;2.10;8.10;;;;;;5054486;28;20027;-50
2023/03/05 07:41:12;;;;;;;53.80;26.83;;;2.00;7.30;;;;;;5054404;28;20086;-51
2023/03/05 07:43:38;;;;;;;57.13;30.60;;;2.10;14.90;;;;;;5054458;28;20028;-51
2023/03/05 07:46:06;;;;;;;46.42;24.15;;;2.00;16.80;;;;;;5054313;28;20050;-51
2023/03/05 07:48:33;;;;;;;54.50;26.98;;;2.20;20.10;;;;;;5054286;28;21032;-53
2023/03/05 07:51:03;;;;;;;44.78;25.17;;;2.00;18.80;;;;;;5052886;28;20029;-50
2023/03/05 07:53:29;;;;;;;50.33;27.17;;;2.20;16.90;;;;;;5054106;28;20021;-52
2023/03/05 07:55:55;;;;;;;52.97;26.05;;;2.20;10.40;;;;;;5054080;28;20028;-52
2023/03/05 07:58:20;;;;;;;56.80;25.92;;;2.20;17.10;;;;;;5054240;28;20334;-51
2023/03/05 08:00:46;;;;;;;52.20;29.13;;;2.20;13.20;;;;;;5053884;28;20033;-51
2023/03/05 08:03:12;;;;;;;56.20;29.95;;;2.20;19.30;;;;;;5053712;28;20021;-53
2023/03/05 08:05:41;;;;;;;54.63;28.27;;;2.10;11.10;;;;;;5053310;28;20420;-52
2023/03/05 08:08:07;;;;;;;45.30;25.27;;;2.10;9.60;;;;;;5053960;28;20033;-50
2023/03/05 08:10:34;;;;;;;55.25;29.48;;;2.20;24.10;;;;;;5053404;28;20034;-50
2023/03/05 08:13:00;;;;;;;55.28;28.38;;;2.30;11.90;;;;;;5053616;28;20109;-51
2023/03/05 08:15:25;;;;;;;51.08;26.63;;;2.30;7.70;;;;;;5053624;28;20044;-52
2023/03/05 08:17:51;;;;;;;47.97;27.10;;;2.40;9.50;;;;;;5053787;28;20009;-51
2023/03/05 08:20:18;;;;;;;56.47;26.65;;;2.50;7.20;;;;;;5053797;28;20107;-51
2023/03/05 08:22:44;;;;;;;54.45;28.08;;;2.50;4.00;;;;;;5053527;28;20487;-52
2023/03/05 08:25:10;;;;;;;50.75;29.45;;;2.60;1.10;;;;;;5053735;28;20021;-50
2023/03/05 08:27:40;;;;;;;54.75;30.30;;;2.50;1.00;;;;;;5053550;28;20070;-50
2023/03/05 08:30:07;;;;;;;53.53;28.40;;;2.50;1.00;;;;;;5053556;28;20488;-49
2023/03/05 08:32:32;;;;;;;59.00;29.65;;;2.40;1.00;;;;;;5053383;28;20005;-52
2023/03/05 08:34:58;;;;;;;56.40;31.92;;;2.60;1.00;;;;;;5052731;28;20023;-50
2023/03/05 08:37:24;;;;;;;55.58;30.00;;;2.40;1.00;;;;;;5053384;28;20029;-50
2023/03/05 08:39:50;;;;;;;54.08;30.02;;;2.50;1.00;;;;;;5046322;28;20045;-51
2023/03/05 08:42:15;;;;;;;55.00;29.55;;;2.40;1.00;;;;;;5033443;28;20036;-52
2023/03/05 08:44:41;;;;;;;55.47;29.88;;;2.50;1.00;;;;;;5036412;28;20112;-50
2023/03/05 08:47:07;;;;;;;50.70;28.60;;;2.50;1.00;;;;;;5033263;28;20451;-49
2023/03/05 08:49:33;;;;;;;61.10;32.47;;;2.60;1.00;;;;;;5044825;28;20087;-51
2023/03/05 08:51:58;;;;;;;58.85;29.48;;;2.60;1.00;;;;;;5033736;28;20056;-50
2023/03/05 08:54:24;;;;;;;51.17;30.73;;;2.70;1.00;;;;;;5034483;28;20041;-50
2023/03/05 08:56:50;;;;;;;57.97;32.10;;;2.80;1.00;;;;;;5033425;28;20048;-49
2023/03/05 08:59:15;;;;;;;52.10;28.80;;;2.90;1.00;;;;;;5035346;28;20029;-51
2023/03/05 09:01:41;;;;;;;62.58;31.17;;;2.80;1.00;;;;;;5032917;28;20067;-50
2023/03/05 09:04:08;;;;;;;61.28;31.42;;;2.80;1.00;;;;;;5043913;28;20029;-50
2023/03/05 09:06:38;;;;;;;59.63;31.75;;;3.00;1.00;;;;;;5032815;28;20163;-51
2023/03/05 09:09:03;;;;;;;53.10;28.25;;;3.00;1.00;;;;;;5035146;28;20501;-50
2023/03/05 09:11:29;;;;;;;51.33;27.95;;;3.40;1.00;;;;;;5032373;28;20056;-50
2023/03/05 09:13:55;;;;;;;50.70;28.58;;;3.30;1.00;;;;;;5043083;28;20044;-51
2023/03/05 09:16:20;;;;;;;53.20;29.92;;;3.60;1.00;;;;;;5032657;28;20453;-51
2023/03/05 09:18:46;;;;;;;56.03;27.83;;;3.60;1.00;;;;;;5035019;28;20032;-50
2023/03/05 09:21:15;;;;;;;46.20;24.25;;;3.70;1.00;;;;;;5032652;28;20018;-52
2023/03/05 09:23:42;;;;;;;41.55;21.17;;;3.60;1.00;;;;;;5042605;28;20040;-50
2023/03/05 09:26:10;;;;;;;40.72;22.90;;;3.50;1.00;;;;;;5032658;28;20032;-55
2023/03/05 09:28:37;;;;;;;40.35;21.33;;;3.40;1.00;;;;;;5034496;28;20603;-52
2023/03/05 09:31:03;;;;;;;56.58;26.35;;;3.60;1.00;;;;;;5032316;28;20075;-53
2023/03/05 09:33:31;;;;;;;51.53;25.70;;;3.60;1.00;;;;;;5040055;28;20091;-51
2023/03/05 09:35:57;;;;;;;65.80;23.98;;;3.60;1.00;;;;;;5034627;28;20049;-51
2023/03/05 09:38:22;;;;;;;51.05;25.92;;;3.40;1.00;;;;;;5032954;28;20118;-53
2023/03/05 09:41:02;;;;;;;50.35;26.08;;;3.60;1.00;;;;;;5031990;28;20024;-51
2023/03/05 09:43:53;;;;;;;36.90;21.88;;;3.90;1.00;;;;;;5039156;28;20068;-51
2023/03/05 09:46:49;;;;;;;43.08;22.60;;;4.00;1.00;;;;;;5031555;28;20032;-52
2023/03/05 09:49:41;;;;;;;40.50;22.77;;;4.00;1.00;;;;;;5034000;28;20144;-51
2023/03/05 09:52:19;;;;;;;43.13;23.85;;;4.10;1.00;;;;;;5031813;28;20113;-52
2023/03/05 09:54:51;;;;;;;62.67;22.73;;;4.10;1.00;;;;;;5040967;28;20546;-52
2023/03/05 09:57:22;;;;;;;43.13;21.60;;;3.70;1.00;;;;;;5033707;28;20075;-54
2023/03/05 10:00:04;;;;;;;38.63;21.75;;;3.90;1.00;;;;;;5034344;28;20083;-49
2023/03/05 10:02:35;;;;;;;44.22;21.45;;;4.00;1.00;;;;;;5031823;28;20104;-50
2023/03/05 10:05:10;;;;;;;38.60;20.98;;;4.20;99.90;;;;;;5042552;28;20022;-51
2023/03/05 10:07:40;;;;;;;32.45;17.30;;;4.20;1.00;;;;;;5031581;28;20500;-52
2023/03/05 10:10:14;;;;;;;38.42;22.02;;;4.30;99.90;;;;;;5034218;28;20092;-52
2023/03/05 10:12:44;;;;;;;37.17;19.60;;;4.30;99.90;;;;;;5029809;28;20041;-52
2023/03/05 10:15:15;;;;;;;35.97;19.80;;;4.20;99.90;;;;;;5042100;28;20045;-50
2023/03/05 10:18:19;;;;;;;32.15;18.23;;;4.20;99.90;;;;;;5031498;28;20029;-54
2023/03/05 10:20:44;;;;;;;38.97;18.25;;;4.30;99.90;;;;;;5031701;28;20029;-54
2023/03/05 10:23:24;;;;;;;35.38;16.23;;;4.00;99.90;;;;;;5033809;28;20032;-53
2023/03/05 10:26:27;;;;;;;29.38;16.25;;;4.40;99.90;;;;;;5037192;28;20056;-51
2023/03/05 10:29:20;;;;;;;32.20;16.05;;;4.70;99.90;;;;;;5034127;28;20029;-51
2023/03/05 10:32:30;;;;;;;30.15;16.08;;;4.80;1.00;;;;;;5031499;28;20397;-52
2023/03/05 10:35:14;;;;;;;35.25;15.82;;;4.80;1.00;;;;;;5044458;28;20037;-53
2023/03/05 10:37:52;;;;;;;31.75;15.02;;;4.80;1.00;;;;;;5040043;28;20115;-51
2023/03/05 10:40:23;;;;;;;35.85;15.48;;;4.90;1.00;;;;;;5033522;28;20017;-55
2023/03/05 10:43:15;;;;;;;25.98;14.70;;;4.70;99.90;;;;;;5031565;28;20101;-52
2023/03/05 10:45:48;;;;;;;22.23;13.18;;;4.90;99.90;;;;;;5030554;28;20072;-52
2023/03/05 10:48:32;;;;;;;23.40;13.10;;;5.10;99.90;;;;;;5032709;28;20048;-52
2023/03/05 10:54:32;;;;;;;32.63;16.98;;;5.40;4.80;;;;;;5046771;28;20051;-55
2023/03/05 10:57:03;;;;;;;20.58;12.40;;;5.40;1.00;;;;;;5031696;28;20040;-55
2023/03/05 10:59:28;;;;;;;25.50;12.68;;;5.50;1.00;;;;;;5035948;28;20029;-52
2023/03/05 11:02:07;;;;;;;48.47;21.10;;;5.30;1.00;;;;;;5034659;28;20044;-55
2023/03/05 11:04:36;;;;;;;23.60;13.20;;;5.40;1.00;;;;;;5044976;28;20037;-51
2023/03/05 11:07:14;;;;;;;31.98;14.25;;;5.60;1.00;;;;;;5039877;28;20028;-51
2023/03/05 11:10:15;;;;;;;24.00;13.32;;;5.70;1.00;;;;;;5043877;28;20032;-54
2023/03/05 11:12:41;;;;;;;19.63;11.88;;;5.80;99.90;;;;;;5033303;28;20060;-51
2023/03/05 11:15:12;;;;;;;21.42;12.23;;;5.70;1.00;;;;;;5045496;28;20380;-51
2023/03/05 11:18:02;;;;;;;24.90;12.40;;;5.70;99.90;;;;;;5034864;28;20017;-54
2023/03/05 11:20:28;;;;;;;24.35;12.95;;;5.60;1.00;;;;;;5036509;28;20030;-55
2023/03/05 11:23:17;;;;;;;21.42;12.38;;;5.60;1.00;;;;;;5034508;28;20025;-56
2023/03/05 11:25:54;;;;;;;21.60;12.20;;;5.40;1.00;;;;;;5054911;28;20075;-51
2023/03/05 11:28:24;;;;;;;23.42;12.70;;;5.50;99.90;;;;;;5034561;28;20026;-54
2023/03/05 11:31:19;;;;;;;24.10;12.68;;;5.50;99.90;;;;;;5035865;28;20100;-53
2023/03/05 11:33:57;;;;;;;20.20;11.00;;;5.70;99.90;;;;;;5037671;28;20093;-55
2023/03/05 11:36:30;;;;;;;21.65;11.57;;;5.40;99.90;;;;;;5039601;28;20032;-52
2023/03/05 11:39:07;;;;;;;30.48;12.85;;;5.80;99.90;;;;;;5030949;28;20092;-55
2023/03/05 11:41:49;;;;;;;21.25;11.00;;;5.70;99.90;;;;;;5042726;28;20021;-54
2023/03/05 11:44:27;;;;;;;31.92;12.68;;;6.10;9.50;;;;;;5029908;28;20030;-52
2023/03/05 11:47:07;;;;;;;23.52;11.88;;;5.90;99.90;;;;;;5041106;28;20036;-53
2023/03/05 11:49:42;;;;;;;23.05;10.40;;;5.90;99.90;;;;;;5037225;28;20061;-52
2023/03/05 11:52:11;;;;;;;14.13;8.50;;;5.70;1.00;;;;;;5033528;28;20028;-53
2023/03/05 11:55:07;;;;;;;17.55;9.27;;;5.70;99.90;;;;;;5033484;28;20026;-55
2023/03/05 11:58:10;;;;;;;12.18;7.80;;;5.80;99.90;;;;;;5028851;28;20029;-54
2023/03/05 12:00:40;;;;;;;15.25;8.75;;;5.60;99.90;;;;;;5025818;28;20021;-52
2023/03/05 12:03:12;;;;;;;14.35;8.63;;;5.70;99.90;;;;;;5041965;28;20032;-52
2023/03/05 12:05:43;;;;;;;12.57;7.75;;;5.40;1.00;;;;;;5034333;28;21743;-55
2023/03/05 12:08:15;;;;;;;14.32;7.82;;;5.50;12.40;;;;;;5023685;28;20048;-53
2023/03/05 12:10:41;;;;;;;17.53;8.20;;;5.60;16.80;;;;;;5026090;28;20037;-52
2023/03/05 12:13:31;;;;;;;14.25;8.15;;;5.60;99.90;;;;;;5039134;28;20036;-51
2023/03/05 12:16:05;;;;;;;10.35;7.38;;;5.70;99.90;;;;;;5031942;28;20537;-51
2023/03/05 12:18:42;;;;;;;12.57;7.13;;;5.80;1.00;;;;;;5042271;28;20021;-51
2023/03/05 12:21:33;;;;;;;11.60;7.50;;;6.10;1.00;;;;;;5033712;28;20025;-54
2023/03/05 12:24:01;;;;;;;12.10;7.13;;;6.10;99.90;;;;;;5030894;28;20032;-51
2023/03/05 12:26:52;;;;;;;16.95;7.75;;;6.00;99.90;;;;;;5022646;28;20034;-52
2023/03/05 12:29:38;;;;;;;14.95;8.25;;;6.00;99.90;;;;;;5039414;28;20029;-51
2023/03/05 12:32:24;;;;;;;13.75;7.65;;;5.70;1.00;;;;;;5032525;28;20029;-52
2023/03/05 12:34:59;;;;;;;12.68;7.32;;;5.80;1.00;;;;;;5034374;28;20072;-51
2023/03/05 12:37:26;;;;;;;12.90;8.35;;;5.70;1.00;;;;;;5022545;28;20108;-51
2023/03/05 12:39:59;;;;;;;15.82;8.02;;;5.70;1.00;;;;;;5029907;28;20033;-51
2023/03/05 12:42:28;;;;;;;11.60;7.15;;;5.70;1.00;;;;;;5041793;28;20472;-52
2023/03/05 12:45:13;;;;;;;11.02;7.35;;;5.60;1.00;;;;;;5032208;28;20040;-53
2023/03/05 12:47:58;;;;;;;15.18;8.20;;;5.60;1.00;;;;;;5025668;28;20488;-55
2023/03/05 12:53:50;;;;;;;17.70;7.50;;;5.50;1.00;;;;;;5028207;28;20083;-51
2023/03/05 12:56:20;;;;;;;9.07;6.80;;;5.60;99.90;;;;;;5032682;28;20106;-52
2023/03/05 12:58:50;;;;;;;18.75;8.20;;;5.60;99.90;;;;;;5034119;28;20036;-53
2023/03/05 13:01:30;;;;;;;13.82;7.68;;;5.70;1.00;;;;;;5035730;28;20026;-53
2023/03/05 13:04:13;;;;;;;13.68;7.47;;;5.60;1.00;;;;;;5030584;28;20029;-52